Decoded Metar for ETSB (BUECHEL in GERMANY) (IATA:N/A) | Meteo·Mobile Aviation Weather
aviador You're here:

ETSB Decoded Metar

BUECHEL in GERMANY
Report Time2019-03-19 18:20:00
UTC Time2019-03-19 18:47:53
Flight Rules vfr VFR
Wind070° at 05 kt
W.Decomp.*RWY 03: 3.9 kt HW 3.1 kt RCW
W.Rank070° ranks 11
Current wind is below 070° avg. (6.6)
Visibility9999 m
Phenomena:N/A
Clouds:Scattered 060 Hf
Expected CloudBase > 3,200 ft AGL from Temp-Dew spread
CeilingNone
Temp05°C (ISA -7)
Dew Point-3°C (57% RH)
AAT0.8°C
QNH1029 hPa
Density Alt305 ft
Elevation1,594 ft
Report Wrong Elevation
Raw Report
METAR ETSB 191820Z 07005KT 9999 SCT060 05/M03 Q1029 BLU+BLU+=

Extra information for ETSB:More info

Metar Taf Metar & Taf Last 4 Metars F.Rules Stats Wind Profile Meteogram Temp Stats Airport Information Weather charts Add Link Nearby VenuesMetar ALERT Operation Metar Decoded Social comments